Main page
METAR-TAF:

METAR-TAF

Airports :

Cabo Frio International Airport

Cabo Frio, Rio de Janeiro, Brazil

latitude: 22-55-15S, longitude: 042-04-17W, elevation: 7 m

Current weather observation

The report was made 10 hours and 49 minutes ago, at 21:00 UTC
Wind 12 kt from the West
Temperature 25°C
Humidity 83%
Pressure 1013 hPa
Visibility 10 km or more
no clouds below 1500 m and no cumulonimbus

METAR: SBCB 192100Z 27012KT CAVOK 25/22 Q1013

Time: 04:49 (07:49 UTC)

Forecast

The report was made 4 hours and 49 minutes ago, at 03:00 UTC
Forecast valid from 20 at 06 UTC to 21 at 06 UTC
Wind 10 kt from the East/Northeast
Visibility 10 km or more
Few clouds at a height of 2000 ft
Becoming
from 20 at 14 UTC to 20 at 16 UTC
Wind 10 kt from the East
Few clouds at a height of 2500 ft

TAF: SBCB 200300Z 2006/2106 07010KT 9999 FEW020 TN22/2009Z TX28/2015Z BECMG 2014/2016 10010KT FEW025 RMK PHD

Weather observations and forecasts of more than 4000 airports (METAR and TAF reports).

The available stations are represented by yellow and red dots on the map.

Hover mouse over dot to see the name of the station.

Then click to see weather observations and forecasts.

To change the map : click on the green buttons with a black cross to zoom in, on the green button with a dash to zoom out, or on the green arrows for adjacent maps.


METAR-TAF: